Millport, Alabama
Current Conditions -  °F | °C
As of 9:58 AM on Thursday 23 Oct 2014 (Local Time) from KCBM Reporting Station
Clear Clear  
Wind Chill: 53°   Ceiling: Unl
Heat Index: 53°   Visibility: 10mi
Dew Point: 45°   Wind: 1mph
Humidity: 73%   Direction: 50°NE
Pressure: 30.19"   Gusts: NA
Location:  33.56°N, 88.08°W
Report Text: KCBM 231458Z 05001KT 10SM CLR 12/07 A3019 RMK AO2A SLP226 T01180071 50015 $
Loading
Personal Weather Stations






























Interactive Weather Map
Tropical Storm Tracking
New forecast layout! Learn more

10-Day Weather Forecast

Advertisements
Track Severe Weather on mobile